Time;durP1;ratioP1;P1;durP2;ratioP2;P2;SDS_P1;SDS_P2;PMS_P1;PMS_P2;Temp;Humidity;BMP_temperature;BMP_pressure;BME280_temperature;BME280_humidity;BME280_pressure;Samples;Min_cycle;Max_cycle;Signal;HPM_P1;HPM_P2
2020/12/09 00:01:48;;;;;;;7.90;4.05;;;;;;;;;;5014542;28;20212;-64
2020/12/09 00:04:14;;;;;;;2.70;2.35;;;;;;;;;;5014770;28;20521;-64
2020/12/09 00:06:41;;;;;;;5.20;5.00;;;;;;;;;;5014721;28;20174;-65
2020/12/09 00:09:11;;;;;;;2.30;2.20;;;;;;;;;;5014344;28;20224;-64
2020/12/09 00:11:37;;;;;;;3.03;2.92;;;;;;;;;;5014576;28;20238;-64
2020/12/09 00:14:03;;;;;;;4.47;4.18;;;;;;;;;;5014501;28;20201;-64
2020/12/09 00:16:29;;;;;;;3.70;3.45;;;;;;;;;;5014343;28;20174;-64
2020/12/09 00:18:56;;;;;;;4.75;4.25;;;;;;;;;;5014205;28;20173;-64
2020/12/09 00:21:23;;;;;;;3.25;2.95;;;;;;;;;;5014375;28;20673;-64
2020/12/09 00:23:50;;;;;;;4.93;4.63;;;;;;;;;;5014393;28;20182;-64
2020/12/09 00:26:17;;;;;;;6.18;2.72;;;;;;;;;;5014387;28;20178;-65
2020/12/09 00:28:43;;;;;;;4.53;4.13;;;;;;;;;;5014337;28;20785;-64
2020/12/09 00:31:09;;;;;;;3.20;3.00;;;;;;;;;;5013979;28;20213;-64
2020/12/09 00:33:35;;;;;;;5.03;4.47;;;;;;;;;;5014070;28;20444;-64
2020/12/09 00:36:01;;;;;;;4.33;2.43;;;;;;;;;;5014126;28;20409;-64
2020/12/09 00:38:27;;;;;;;6.03;5.25;;;;;;;;;;5014095;28;20823;-64
2020/12/09 00:40:53;;;;;;;3.47;3.28;;;;;;;;;;5013895;28;20240;-64
2020/12/09 00:43:19;;;;;;;4.15;3.20;;;;;;;;;;5013773;28;20194;-64
2020/12/09 00:45:45;;;;;;;3.90;3.70;;;;;;;;;;5013900;28;20189;-64
2020/12/09 00:48:11;;;;;;;4.28;3.85;;;;;;;;;;5013909;28;20413;-64
2020/12/09 00:50:37;;;;;;;3.23;3.10;;;;;;;;;;5013482;28;20251;-64
2020/12/09 00:53:03;;;;;;;2.10;2.00;;;;;;;;;;5012525;28;20464;-64
2020/12/09 00:55:29;;;;;;;3.20;3.00;;;;;;;;;;5013820;28;20172;-65
2020/12/09 00:57:55;;;;;;;3.90;3.50;;;;;;;;;;5013657;28;20706;-65
2020/12/09 01:00:21;;;;;;;4.00;2.17;;;;;;;;;;5013343;28;20173;-64
2020/12/09 01:02:47;;;;;;;4.10;3.80;;;;;;;;;;5013431;28;20209;-64
2020/12/09 01:05:14;;;;;;;1.83;1.73;;;;;;;;;;5013583;28;20188;-64
2020/12/09 01:07:40;;;;;;;4.68;4.38;;;;;;;;;;5013568;28;20416;-64
2020/12/09 01:10:07;;;;;;;3.72;3.55;;;;;;;;;;5013140;28;20220;-64
2020/12/09 01:12:33;;;;;;;6.40;4.65;;;;;;;;;;5013273;28;20186;-64
2020/12/09 01:14:59;;;;;;;2.60;2.50;;;;;;;;;;5013376;28;20162;-64
2020/12/09 01:17:25;;;;;;;5.32;3.80;;;;;;;;;;5012119;28;20177;-64
2020/12/09 01:19:51;;;;;;;6.00;5.50;;;;;;;;;;5013059;28;20170;-64
2020/12/09 01:22:17;;;;;;;3.63;3.42;;;;;;;;;;5012678;28;20658;-64
2020/12/09 01:24:43;;;;;;;6.13;4.50;;;;;;;;;;5013218;28;20236;-64
2020/12/09 01:27:09;;;;;;;2.72;2.60;;;;;;;;;;5031447;28;20180;-64
2020/12/09 01:29:35;;;;;;;5.45;5.15;;;;;;;;;;5032372;28;20227;-65
2020/12/09 01:32:02;;;;;;;3.70;3.47;;;;;;;;;;5032489;28;20226;-64
2020/12/09 01:34:28;;;;;;;3.88;3.55;;;;;;;;;;5032554;28;20196;-64
2020/12/09 01:36:54;;;;;;;2.63;2.53;;;;;;;;;;5032413;28;20176;-64
2020/12/09 01:39:20;;;;;;;2.08;1.98;;;;;;;;;;5032191;28;20188;-64
2020/12/09 01:41:46;;;;;;;5.40;5.00;;;;;;;;;;5032283;28;20189;-64
2020/12/09 01:44:12;;;;;;;4.03;3.83;;;;;;;;;;5032351;28;20183;-64
2020/12/09 01:46:39;;;;;;;1.90;1.90;;;;;;;;;;5032361;28;20173;-64
2020/12/09 01:49:05;;;;;;;2.25;2.15;;;;;;;;;;5032049;28;20177;-64
2020/12/09 01:51:31;;;;;;;4.90;3.60;;;;;;;;;;5032259;28;20203;-64
2020/12/09 01:53:58;;;;;;;3.78;3.33;;;;;;;;;;5032559;28;20210;-64
2020/12/09 01:56:24;;;;;;;4.70;4.50;;;;;;;;;;5032153;28;20547;-64
2020/12/09 01:58:51;;;;;;;3.80;3.60;;;;;;;;;;5031845;28;20170;-64
2020/12/09 02:01:17;;;;;;;3.75;2.97;;;;;;;;;;5031957;28;20686;-65
2020/12/09 02:03:44;;;;;;;3.88;3.55;;;;;;;;;;5032107;28;20287;-64
2020/12/09 02:06:10;;;;;;;3.75;3.55;;;;;;;;;;5032031;28;20213;-65
2020/12/09 02:08:36;;;;;;;4.53;4.28;;;;;;;;;;5031855;28;20172;-64
2020/12/09 02:11:02;;;;;;;5.57;4.90;;;;;;;;;;5031622;28;20684;-64
2020/12/09 02:13:29;;;;;;;2.92;2.72;;;;;;;;;;5031821;28;20444;-64
2020/12/09 02:15:55;;;;;;;4.55;3.13;;;;;;;;;;5031758;28;20180;-64
2020/12/09 02:18:21;;;;;;;4.47;4.07;;;;;;;;;;5031793;28;20634;-64
2020/12/09 02:20:47;;;;;;;3.22;2.90;;;;;;;;;;5030200;28;20208;-64
2020/12/09 02:23:13;;;;;;;3.50;3.30;;;;;;;;;;5036486;28;20216;-64
2020/12/09 02:25:39;;;;;;;3.63;3.33;;;;;;;;;;5044014;28;20623;-64
2020/12/09 02:28:05;;;;;;;5.97;3.92;;;;;;;;;;5042113;28;20541;-64
2020/12/09 02:30:32;;;;;;;2.08;1.98;;;;;;;;;;5031457;28;20230;-64
2020/12/09 02:32:58;;;;;;;4.28;3.90;;;;;;;;;;5030705;28;20652;-65
2020/12/09 02:35:24;;;;;;;4.30;4.10;;;;;;;;;;5031188;28;20651;-64
2020/12/09 02:37:53;;;;;;;5.50;5.22;;;;;;;;;;5031599;28;20532;-64
2020/12/09 02:40:19;;;;;;;4.90;4.55;;;;;;;;;;5031252;28;20180;-64
2020/12/09 02:42:45;;;;;;;4.00;3.70;;;;;;;;;;5031302;28;20235;-64
2020/12/09 02:45:11;;;;;;;6.70;2.80;;;;;;;;;;5031415;28;20204;-64
2020/12/09 02:47:37;;;;;;;5.73;5.20;;;;;;;;;;5031410;28;20231;-64
2020/12/09 02:50:03;;;;;;;5.30;3.50;;;;;;;;;;5031039;28;20818;-64
2020/12/09 02:52:29;;;;;;;5.05;4.65;;;;;;;;;;5031577;28;20467;-64
2020/12/09 02:54:55;;;;;;;3.28;3.05;;;;;;;;;;5031413;28;20173;-64
2020/12/09 02:57:21;;;;;;;2.85;2.75;;;;;;;;;;5031565;28;20231;-64
2020/12/09 02:59:47;;;;;;;6.57;6.28;;;;;;;;;;5031191;28;20176;-64
2020/12/09 03:02:13;;;;;;;4.53;4.27;;;;;;;;;;5055017;23;20244;-64
2020/12/09 03:04:39;;;;;;;7.75;4.28;;;;;;;;;;4991743;28;20431;-64
2020/12/09 03:07:05;;;;;;;4.05;3.75;;;;;;;;;;4991908;28;20202;-65
2020/12/09 03:09:31;;;;;;;2.65;2.58;;;;;;;;;;4991838;28;20209;-65
2020/12/09 03:11:58;;;;;;;6.20;5.72;;;;;;;;;;4992005;28;20579;-64
2020/12/09 03:14:23;;;;;;;2.45;2.25;;;;;;;;;;4992019;28;20171;-64
2020/12/09 03:16:49;;;;;;;4.05;3.85;;;;;;;;;;4991995;28;20222;-66
2020/12/09 03:19:16;;;;;;;3.30;3.10;;;;;;;;;;4991815;28;20175;-66
2020/12/09 03:21:42;;;;;;;1.65;1.65;;;;;;;;;;4991934;28;20416;-66
2020/12/09 03:24:08;;;;;;;3.42;2.70;;;;;;;;;;4991996;28;20173;-66
2020/12/09 03:26:34;;;;;;;3.67;3.08;;;;;;;;;;4991890;28;20701;-66
2020/12/09 03:29:00;;;;;;;5.03;4.65;;;;;;;;;;4991642;28;20174;-66
2020/12/09 03:31:26;;;;;;;3.17;2.93;;;;;;;;;;4991977;28;20581;-66
2020/12/09 03:33:52;;;;;;;6.22;4.20;;;;;;;;;;4991874;28;20507;-66
2020/12/09 03:36:18;;;;;;;2.90;2.70;;;;;;;;;;4992195;28;20717;-66
2020/12/09 03:38:44;;;;;;;2.45;2.35;;;;;;;;;;4991716;28;20206;-66
2020/12/09 03:41:10;;;;;;;5.07;4.00;;;;;;;;;;4991661;28;20211;-66
2020/12/09 03:43:36;;;;;;;3.67;3.42;;;;;;;;;;4991763;28;20663;-66
2020/12/09 03:46:02;;;;;;;2.83;2.40;;;;;;;;;;4995176;28;20181;-66
2020/12/09 03:48:28;;;;;;;4.18;2.80;;;;;;;;;;4995426;28;20768;-66
2020/12/09 03:50:54;;;;;;;6.30;5.80;;;;;;;;;;4995150;28;20234;-66
2020/12/09 03:53:21;;;;;;;4.90;4.57;;;;;;;;;;4995903;28;20194;-66
2020/12/09 03:55:48;;;;;;;4.93;4.47;;;;;;;;;;4995266;28;20544;-66
2020/12/09 03:58:14;;;;;;;6.18;5.70;;;;;;;;;;4994988;28;20175;-66
2020/12/09 04:00:40;;;;;;;8.02;4.28;;;;;;;;;;4994969;28;20178;-66
2020/12/09 04:03:06;;;;;;;6.93;3.95;;;;;;;;;;4994844;28;20693;-66
2020/12/09 04:05:32;;;;;;;2.85;2.75;;;;;;;;;;4995146;28;20253;-66
2020/12/09 04:07:58;;;;;;;4.22;4.03;;;;;;;;;;4995095;28;20175;-66
2020/12/09 04:10:24;;;;;;;9.25;6.95;;;;;;;;;;4994751;28;20202;-66
2020/12/09 04:12:50;;;;;;;4.18;3.88;;;;;;;;;;4994880;28;20221;-66
2020/12/09 04:15:16;;;;;;;5.47;4.93;;;;;;;;;;4994931;28;20180;-66
2020/12/09 04:17:42;;;;;;;4.97;2.67;;;;;;;;;;4994775;28;20647;-66
2020/12/09 04:20:08;;;;;;;3.95;3.75;;;;;;;;;;4994506;28;20261;-66
2020/12/09 04:22:35;;;;;;;3.13;2.42;;;;;;;;;;4994749;28;20194;-66
2020/12/09 04:25:01;;;;;;;5.22;4.70;;;;;;;;;;4994729;28;20543;-66
2020/12/09 04:27:27;;;;;;;6.03;5.63;;;;;;;;;;4994768;28;20183;-66
2020/12/09 04:29:53;;;;;;;4.95;2.72;;;;;;;;;;4994321;28;20253;-66
2020/12/09 04:32:19;;;;;;;4.37;4.10;;;;;;;;;;4993177;28;20286;-66
2020/12/09 04:34:45;;;;;;;3.45;3.25;;;;;;;;;;4994648;28;20496;-66
2020/12/09 04:37:12;;;;;;;4.07;3.75;;;;;;;;;;4994350;28;20634;-66
2020/12/09 04:39:38;;;;;;;2.67;2.08;;;;;;;;;;4994156;28;20185;-66
2020/12/09 04:42:04;;;;;;;1.45;1.45;;;;;;;;;;4994343;28;20650;-66
2020/12/09 04:44:30;;;;;;;4.55;4.25;;;;;;;;;;4994380;28;20735;-66
2020/12/09 04:47:01;;;;;;;3.75;3.55;;;;;;;;;;4994191;28;20185;-66
2020/12/09 04:49:38;;;;;;;1.20;1.20;;;;;;;;;;4994066;28;20275;-66
2020/12/09 04:52:17;;;;;;;6.00;4.95;;;;;;;;;;4994280;28;20186;-66
2020/12/09 04:54:47;;;;;;;7.43;7.00;;;;;;;;;;4994125;28;20182;-66
2020/12/09 04:57:28;;;;;;;2.78;2.65;;;;;;;;;;4993176;28;20181;-66
2020/12/09 04:59:59;;;;;;;2.45;2.33;;;;;;;;;;4994010;28;20178;-66
2020/12/09 05:02:36;;;;;;;5.43;3.17;;;;;;;;;;4993910;28;20278;-66
2020/12/09 05:05:02;;;;;;;11.70;5.90;;;;;;;;;;4994011;28;20206;-66
2020/12/09 05:07:31;;;;;;;2.13;2.00;;;;;;;;;;4993860;28;20182;-66
2020/12/09 05:09:59;;;;;;;6.22;4.13;;;;;;;;;;4993742;28;20208;-66
2020/12/09 05:12:26;;;;;;;3.05;2.60;;;;;;;;;;4993777;28;20285;-66
2020/12/09 05:14:52;;;;;;;3.70;3.50;;;;;;;;;;4993817;28;20187;-66
2020/12/09 05:17:19;;;;;;;5.60;5.10;;;;;;;;;;4993773;28;20254;-66
2020/12/09 05:19:46;;;;;;;3.47;3.38;;;;;;;;;;4993501;28;20442;-66
2020/12/09 05:22:16;;;;;;;4.63;4.22;;;;;;;;;;4993479;28;20240;-66
2020/12/09 05:24:43;;;;;;;3.20;3.08;;;;;;;;;;4993709;28;20641;-66
2020/12/09 05:27:09;;;;;;;4.50;4.30;;;;;;;;;;4993597;28;20182;-66
2020/12/09 05:29:43;;;;;;;2.00;1.90;;;;;;;;;;4993345;28;20209;-66
2020/12/09 05:32:09;;;;;;;5.20;4.13;;;;;;;;;;4993429;28;20332;-66
2020/12/09 05:34:35;;;;;;;2.85;2.65;;;;;;;;;;4993438;28;20198;-66
2020/12/09 05:37:03;;;;;;;7.07;4.60;;;;;;;;;;4993461;28;20197;-66
2020/12/09 05:39:29;;;;;;;3.15;3.05;;;;;;;;;;4993152;28;20182;-66
2020/12/09 05:41:55;;;;;;;3.92;3.75;;;;;;;;;;4993413;28;20238;-66
2020/12/09 05:44:22;;;;;;;2.47;2.28;;;;;;;;;;4993241;28;20163;-66
2020/12/09 05:47:02;;;;;;;3.50;3.30;;;;;;;;;;4993222;28;20171;-66
2020/12/09 05:49:33;;;;;;;2.95;2.80;;;;;;;;;;4992926;28;20556;-66
2020/12/09 05:52:05;;;;;;;5.25;3.78;;;;;;;;;;4993370;28;20190;-66
2020/12/09 05:54:31;;;;;;;2.97;2.78;;;;;;;;;;4993247;28;20248;-66
2020/12/09 05:56:58;;;;;;;3.15;3.00;;;;;;;;;;4993088;28;20166;-66
2020/12/09 05:59:33;;;;;;;3.50;3.25;;;;;;;;;;4992790;28;20185;-66
2020/12/09 06:02:25;;;;;;;4.93;4.47;;;;;;;;;;4992897;28;20213;-66
2020/12/09 06:04:55;;;;;;;2.60;2.20;;;;;;;;;;4992984;28;20200;-66
2020/12/09 06:07:22;;;;;;;3.70;3.45;;;;;;;;;;5003510;28;20162;-66
2020/12/09 06:10:07;;;;;;;3.53;3.33;;;;;;;;;;5005811;28;20224;-66
2020/12/09 06:13:06;;;;;;;4.03;3.17;;;;;;;;;;4999427;28;20201;-66
2020/12/09 06:15:33;;;;;;;2.70;2.50;;;;;;;;;;4981776;28;20233;-66
2020/12/09 06:18:06;;;;;;;2.47;2.38;;;;;;;;;;4987059;28;20175;-66
2020/12/09 06:20:34;;;;;;;4.63;4.30;;;;;;;;;;4972379;28;20187;-66
2020/12/09 06:23:01;;;;;;;3.47;3.28;;;;;;;;;;4976295;28;20221;-66
2020/12/09 06:25:27;;;;;;;2.10;1.80;;;;;;;;;;4991989;28;20178;-66
2020/12/09 06:27:54;;;;;;;2.80;2.70;;;;;;;;;;4992310;28;20190;-66
2020/12/09 06:30:28;;;;;;;3.20;3.10;;;;;;;;;;4989411;28;20202;-66
2020/12/09 06:32:54;;;;;;;4.15;3.95;;;;;;;;;;4972606;28;20204;-66
2020/12/09 06:35:21;;;;;;;2.15;2.05;;;;;;;;;;4972948;28;20182;-66
2020/12/09 06:38:06;;;;;;;1.88;1.88;;;;;;;;;;4972107;28;20197;-65
2020/12/09 06:40:32;;;;;;;2.30;2.20;;;;;;;;;;4972787;28;20228;-66
2020/12/09 06:43:11;;;;;;;4.83;3.03;;;;;;;;;;4974266;28;20198;-66
2020/12/09 06:45:41;;;;;;;6.05;5.65;;;;;;;;;;4986718;28;20425;-66
2020/12/09 06:48:14;;;;;;;2.88;2.78;;;;;;;;;;4992443;28;20720;-66
2020/12/09 06:50:44;;;;;;;2.97;2.85;;;;;;;;;;4992115;28;20198;-66
2020/12/09 06:53:12;;;;;;;2.30;2.20;;;;;;;;;;4992359;28;20221;-66
2020/12/09 06:55:38;;;;;;;1.85;1.75;;;;;;;;;;4992409;28;20197;-66
2020/12/09 06:58:23;;;;;;;2.83;2.50;;;;;;;;;;4982504;28;20182;-66
2020/12/09 07:00:59;;;;;;;3.28;2.97;;;;;;;;;;4991186;28;20182;-66
2020/12/09 07:03:26;;;;;;;3.15;2.85;;;;;;;;;;4992239;28;20689;-66
2020/12/09 07:05:52;;;;;;;0.77;0.75;;;;;;;;;;4981139;28;20216;-66
2020/12/09 07:08:18;;;;;;;1.98;1.90;;;;;;;;;;4972677;28;20171;-66
2020/12/09 07:10:44;;;;;;;4.22;3.35;;;;;;;;;;4986031;28;20202;-66
2020/12/09 07:13:14;;;;;;;2.17;2.08;;;;;;;;;;4990529;28;20220;-66
2020/12/09 07:15:45;;;;;;;3.83;3.72;;;;;;;;;;4982281;28;20689;-66
2020/12/09 07:18:12;;;;;;;2.35;2.25;;;;;;;;;;4996774;28;20582;-65
2020/12/09 07:20:38;;;;;;;2.15;2.05;;;;;;;;;;4984658;28;20186;-65
2020/12/09 07:23:05;;;;;;;1.98;1.88;;;;;;;;;;4976350;28;20567;-64
2020/12/09 07:25:31;;;;;;;1.67;1.58;;;;;;;;;;4983081;28;20558;-64
2020/12/09 07:27:57;;;;;;;1.33;1.33;;;;;;;;;;4995232;28;20206;-64
2020/12/09 07:30:24;;;;;;;4.65;3.78;;;;;;;;;;4992818;28;20202;-65
2020/12/09 07:32:51;;;;;;;7.93;2.75;;;;;;;;;;4993568;28;20190;-65
2020/12/09 07:35:18;;;;;;;4.28;4.03;;;;;;;;;;4993271;28;20166;-65
2020/12/09 07:37:46;;;;;;;2.75;2.65;;;;;;;;;;4994411;28;20298;-64
2020/12/09 07:40:15;;;;;;;8.30;1.90;;;;;;;;;;4994173;28;20645;-64
2020/12/09 07:42:41;;;;;;;3.35;2.97;;;;;;;;;;4994598;28;20206;-65
2020/12/09 07:45:16;;;;;;;2.50;2.40;;;;;;;;;;4994776;28;20225;-65
2020/12/09 07:47:42;;;;;;;6.75;4.93;;;;;;;;;;4994859;28;20181;-64
2020/12/09 07:50:08;;;;;;;4.85;2.75;;;;;;;;;;4994627;28;20204;-66
2020/12/09 07:52:38;;;;;;;9.77;2.55;;;;;;;;;;4994473;28;20191;-65
2020/12/09 07:55:15;;;;;;;2.38;2.25;;;;;;;;;;4994902;28;20182;-66
2020/12/09 07:57:41;;;;;;;2.63;2.42;;;;;;;;;;4994912;28;20263;-66
2020/12/09 08:00:11;;;;;;;4.40;3.70;;;;;;;;;;4994231;28;20202;-65
2020/12/09 08:02:38;;;;;;;2.05;1.95;;;;;;;;;;4994131;28;20253;-66
2020/12/09 08:05:08;;;;;;;6.80;5.20;;;;;;;;;;4994665;28;20605;-65
2020/12/09 08:07:34;;;;;;;4.88;3.55;;;;;;;;;;4994818;28;20174;-65
2020/12/09 08:10:13;;;;;;;3.33;2.70;;;;;;;;;;4994440;28;20225;-65
2020/12/09 08:12:42;;;;;;;2.85;2.65;;;;;;;;;;4988537;28;20574;-63
2020/12/09 08:15:09;;;;;;;3.38;3.13;;;;;;;;;;4994044;28;20205;-63
2020/12/09 08:17:36;;;;;;;3.90;3.60;;;;;;;;;;4974836;28;20617;-65
2020/12/09 08:20:03;;;;;;;1.58;1.55;;;;;;;;;;4984000;28;20232;-65
2020/12/09 08:22:29;;;;;;;2.03;1.92;;;;;;;;;;4994204;28;20206;-64
2020/12/09 08:25:08;;;;;;;5.47;4.95;;;;;;;;;;4993588;28;20206;-64
2020/12/09 08:27:44;;;;;;;4.32;3.70;;;;;;;;;;4994010;28;20669;-63
2020/12/09 08:30:36;;;;;;;4.07;3.85;;;;;;;;;;4993348;28;20202;-64
2020/12/09 08:33:26;;;;;;;1.55;1.55;;;;;;;;;;4991998;28;20274;-64
2020/12/09 08:35:51;;;;;;;3.78;3.47;;;;;;;;;;4988506;28;20585;-64
2020/12/09 08:38:36;;;;;;;4.50;4.10;;;;;;;;;;4993607;28;20174;-62
2020/12/09 08:41:05;;;;;;;4.13;3.70;;;;;;;;;;4993840;28;20393;-63
2020/12/09 08:43:32;;;;;;;4.13;3.85;;;;;;;;;;4993930;28;20190;-63
2020/12/09 08:45:58;;;;;;;4.10;3.80;;;;;;;;;;4994104;28;20171;-62
2020/12/09 08:48:24;;;;;;;5.88;4.88;;;;;;;;;;4993222;28;20253;-63
2020/12/09 08:50:51;;;;;;;2.60;2.05;;;;;;;;;;4993478;28;20265;-62
2020/12/09 08:53:19;;;;;;;4.40;4.10;;;;;;;;;;4993842;28;20574;-63
2020/12/09 08:55:45;;;;;;;5.72;4.10;;;;;;;;;;4993741;28;20650;-64
2020/12/09 08:58:12;;;;;;;3.92;2.22;;;;;;;;;;4993391;28;20166;-63
2020/12/09 09:00:39;;;;;;;3.50;3.28;;;;;;;;;;4992918;28;20171;-65
2020/12/09 09:03:12;;;;;;;2.95;2.75;;;;;;;;;;5029366;23;20228;-64
2020/12/09 09:05:40;;;;;;;2.92;2.78;;;;;;;;;;5032763;28;20165;-64
2020/12/09 09:08:06;;;;;;;3.13;3.03;;;;;;;;;;5032933;28;20188;-64
2020/12/09 09:10:32;;;;;;;6.85;3.80;;;;;;;;;;5030808;28;20706;-63
2020/12/09 09:12:58;;;;;;;2.22;2.13;;;;;;;;;;5032599;28;20192;-64
2020/12/09 09:15:24;;;;;;;4.80;3.50;;;;;;;;;;5032777;28;20192;-65
2020/12/09 09:17:50;;;;;;;3.35;3.25;;;;;;;;;;5032552;28;20412;-65
2020/12/09 09:20:16;;;;;;;2.25;1.83;;;;;;;;;;5032506;28;20644;-65
2020/12/09 09:22:43;;;;;;;4.63;3.40;;;;;;;;;;5032152;28;20197;-65
2020/12/09 09:25:09;;;;;;;2.22;2.10;;;;;;;;;;5032304;28;20208;-65
2020/12/09 09:27:35;;;;;;;0.98;0.98;;;;;;;;;;5032568;28;20196;-64
2020/12/09 09:30:01;;;;;;;3.47;3.28;;;;;;;;;;5032263;28;20288;-65
2020/12/09 09:32:27;;;;;;;3.47;3.17;;;;;;;;;;5031673;28;20414;-66
2020/12/09 09:34:54;;;;;;;3.33;3.22;;;;;;;;;;5032284;28;20166;-65
2020/12/09 09:37:21;;;;;;;4.32;3.92;;;;;;;;;;5031867;28;20660;-65
2020/12/09 09:39:48;;;;;;;4.47;4.28;;;;;;;;;;5031762;28;20200;-65
2020/12/09 09:42:14;;;;;;;4.88;4.43;;;;;;;;;;5031674;28;20169;-64
2020/12/09 09:44:40;;;;;;;4.32;4.10;;;;;;;;;;5031706;28;20181;-65
2020/12/09 09:47:05;;;;;;;4.30;3.93;;;;;;;;;;5032013;28;20227;-64
2020/12/09 09:49:32;;;;;;;7.70;4.87;;;;;;;;;;5031288;28;20419;-64
2020/12/09 09:51:58;;;;;;;2.45;2.00;;;;;;;;;;5031905;28;20766;-63
2020/12/09 09:54:24;;;;;;;5.80;4.38;;;;;;;;;;5031688;28;20255;-66
2020/12/09 09:56:50;;;;;;;6.23;5.83;;;;;;;;;;5031983;28;20226;-64
2020/12/09 09:59:16;;;;;;;5.30;5.00;;;;;;;;;;5030037;28;20408;-65
2020/12/09 10:01:42;;;;;;;5.00;3.03;;;;;;;;;;5031509;28;20663;-64
2020/12/09 10:04:08;;;;;;;5.93;5.53;;;;;;;;;;5031553;28;20236;-65
2020/12/09 10:06:34;;;;;;;12.95;4.03;;;;;;;;;;5031075;28;20178;-65
2020/12/09 10:09:02;;;;;;;5.32;4.82;;;;;;;;;;5031327;28;20537;-65
2020/12/09 10:11:28;;;;;;;4.22;3.92;;;;;;;;;;5031537;28;20605;-64
2020/12/09 10:13:54;;;;;;;2.75;2.58;;;;;;;;;;5031298;28;20189;-64
2020/12/09 10:16:23;;;;;;;4.93;4.50;;;;;;;;;;5031207;28;20177;-64
2020/12/09 10:18:49;;;;;;;2.55;2.45;;;;;;;;;;5031197;28;21051;-63
2020/12/09 10:21:21;;;;;;;2.80;2.60;;;;;;;;;;5031438;28;20561;-65
2020/12/09 10:23:47;;;;;;;4.90;4.50;;;;;;;;;;5031438;28;20587;-64
2020/12/09 10:26:13;;;;;;;5.03;4.83;;;;;;;;;;5031151;28;20177;-65
2020/12/09 10:28:39;;;;;;;3.23;3.03;;;;;;;;;;5030760;28;20411;-65
2020/12/09 10:31:05;;;;;;;4.93;4.67;;;;;;;;;;5031045;28;20459;-65
2020/12/09 10:33:31;;;;;;;2.30;2.10;;;;;;;;;;5031225;28;20846;-64
2020/12/09 10:35:57;;;;;;;2.30;2.20;;;;;;;;;;5031123;28;20166;-65
2020/12/09 10:38:23;;;;;;;4.50;4.23;;;;;;;;;;5030802;28;20185;-65
2020/12/09 10:40:49;;;;;;;4.80;2.80;;;;;;;;;;5030612;28;20415;-65
2020/12/09 10:43:14;;;;;;;4.23;3.10;;;;;;;;;;5031729;28;20985;-64
2020/12/09 10:45:40;;;;;;;3.50;3.30;;;;;;;;;;5031328;28;20411;-65
2020/12/09 10:48:06;;;;;;;5.57;3.80;;;;;;;;;;5031392;28;20412;-65
2020/12/09 10:50:32;;;;;;;4.78;4.47;;;;;;;;;;5030356;28;20557;-64
2020/12/09 10:52:58;;;;;;;2.97;2.88;;;;;;;;;;5031672;28;20246;-64
2020/12/09 10:55:24;;;;;;;4.10;3.80;;;;;;;;;;5030754;28;20176;-64
2020/12/09 10:57:51;;;;;;;3.53;3.33;;;;;;;;;;5031489;28;20172;-64
2020/12/09 11:00:16;;;;;;;4.28;3.88;;;;;;;;;;5030972;28;20176;-65
2020/12/09 11:02:43;;;;;;;4.90;4.70;;;;;;;;;;5024454;28;20677;-64
2020/12/09 11:05:08;;;;;;;3.28;3.08;;;;;;;;;;5011110;28;20420;-64
2020/12/09 11:07:34;;;;;;;4.20;3.90;;;;;;;;;;5011321;28;20181;-64
2020/12/09 11:10:00;;;;;;;3.90;2.50;;;;;;;;;;5010863;28;20452;-64
2020/12/09 11:12:26;;;;;;;2.30;2.17;;;;;;;;;;5010793;28;20429;-64
2020/12/09 11:14:52;;;;;;;5.17;4.77;;;;;;;;;;5010812;28;20173;-64
2020/12/09 11:17:19;;;;;;;2.22;2.22;;;;;;;;;;5011127;28;20400;-65
2020/12/09 11:19:45;;;;;;;4.38;4.03;;;;;;;;;;5010963;28;20173;-63
2020/12/09 11:22:11;;;;;;;3.47;3.30;;;;;;;;;;5011312;28;20176;-64
2020/12/09 11:24:37;;;;;;;3.03;2.83;;;;;;;;;;5010670;28;20174;-65
2020/12/09 11:27:04;;;;;;;3.08;2.85;;;;;;;;;;5010941;28;20185;-65
2020/12/09 11:29:30;;;;;;;4.00;3.80;;;;;;;;;;5010522;28;20607;-65
2020/12/09 11:31:57;;;;;;;2.70;2.60;;;;;;;;;;5010786;28;20170;-64
2020/12/09 11:34:23;;;;;;;4.88;4.50;;;;;;;;;;5010526;28;20173;-65
2020/12/09 11:36:49;;;;;;;15.43;4.65;;;;;;;;;;5010575;28;20641;-64
2020/12/09 11:39:16;;;;;;;2.75;2.65;;;;;;;;;;5010543;28;20174;-64
2020/12/09 11:41:42;;;;;;;7.47;5.28;;;;;;;;;;5010771;28;20169;-64
2020/12/09 11:44:08;;;;;;;3.20;3.00;;;;;;;;;;5011043;28;20206;-65
2020/12/09 11:46:34;;;;;;;4.85;4.38;;;;;;;;;;5010194;28;20885;-65
2020/12/09 11:49:00;;;;;;;3.08;2.80;;;;;;;;;;5010485;28;20186;-65
2020/12/09 11:51:26;;;;;;;3.00;2.90;;;;;;;;;;5010505;28;20237;-65
2020/12/09 11:53:52;;;;;;;15.68;4.78;;;;;;;;;;5010572;28;20500;-65
2020/12/09 11:56:22;;;;;;;2.60;2.50;;;;;;;;;;5010739;28;20227;-65
2020/12/09 11:58:48;;;;;;;4.30;2.67;;;;;;;;;;5010102;28;20243;-65
2020/12/09 12:01:15;;;;;;;2.20;2.00;;;;;;;;;;5010654;28;20176;-65
2020/12/09 12:03:41;;;;;;;7.20;6.63;;;;;;;;;;5010444;28;20692;-64
2020/12/09 12:06:07;;;;;;;5.75;5.25;;;;;;;;;;5012560;28;20185;-65
2020/12/09 12:08:33;;;;;;;4.20;3.90;;;;;;;;;;5013690;28;20204;-65
2020/12/09 12:10:59;;;;;;;3.67;3.57;;;;;;;;;;5014078;28;20214;-64
2020/12/09 12:13:25;;;;;;;2.97;2.78;;;;;;;;;;5013917;28;20460;-65
2020/12/09 12:15:51;;;;;;;6.87;5.03;;;;;;;;;;5013726;28;20268;-65
2020/12/09 12:18:17;;;;;;;2.87;2.77;;;;;;;;;;5013738;28;20405;-65
2020/12/09 12:20:43;;;;;;;3.00;2.80;;;;;;;;;;5013111;28;20795;-65
2020/12/09 12:23:09;;;;;;;4.07;2.67;;;;;;;;;;5013847;28;20470;-65
2020/12/09 12:25:35;;;;;;;2.35;2.03;;;;;;;;;;5013753;28;20269;-65
2020/12/09 12:28:01;;;;;;;4.47;3.13;;;;;;;;;;5008489;28;20259;-65
2020/12/09 12:30:27;;;;;;;7.10;4.32;;;;;;;;;;4993321;28;20801;-65
2020/12/09 12:32:53;;;;;;;4.40;2.90;;;;;;;;;;4993749;28;20321;-65
2020/12/09 12:35:19;;;;;;;2.37;2.23;;;;;;;;;;4993743;28;20878;-65
2020/12/09 12:37:45;;;;;;;4.60;4.40;;;;;;;;;;4993682;28;20429;-64
2020/12/09 12:40:11;;;;;;;4.65;4.25;;;;;;;;;;4994034;28;20853;-66
2020/12/09 12:42:37;;;;;;;3.70;3.22;;;;;;;;;;4993512;28;20210;-65
2020/12/09 12:45:03;;;;;;;3.25;2.88;;;;;;;;;;4994116;28;20228;-65
2020/12/09 12:47:29;;;;;;;4.10;3.70;;;;;;;;;;4994201;28;20260;-65
2020/12/09 12:49:55;;;;;;;2.70;2.53;;;;;;;;;;4993769;28;20802;-65
2020/12/09 12:52:21;;;;;;;3.03;2.93;;;;;;;;;;4993908;28;20206;-66
2020/12/09 12:54:47;;;;;;;3.53;3.10;;;;;;;;;;4993379;28;20955;-66
2020/12/09 12:57:13;;;;;;;5.53;5.15;;;;;;;;;;4993959;28;20229;-61
2020/12/09 12:59:40;;;;;;;2.10;2.08;;;;;;;;;;4993703;28;20170;-65
2020/12/09 13:02:06;;;;;;;4.50;4.30;;;;;;;;;;4993569;28;20257;-65
2020/12/09 13:04:32;;;;;;;2.47;2.38;;;;;;;;;;4993425;28;20334;-65
2020/12/09 13:06:58;;;;;;;3.95;3.75;;;;;;;;;;4993470;28;20178;-65
2020/12/09 13:09:24;;;;;;;3.28;3.15;;;;;;;;;;4993588;28;20282;-65
2020/12/09 13:11:50;;;;;;;2.97;2.13;;;;;;;;;;4993611;28;20724;-65
2020/12/09 13:14:16;;;;;;;2.75;2.65;;;;;;;;;;4992221;28;20445;-65
2020/12/09 13:16:49;;;;;;;3.85;3.55;;;;;;;;;;4992477;28;20585;-65
2020/12/09 13:19:15;;;;;;;5.07;2.53;;;;;;;;;;4993273;28;20167;-64
2020/12/09 13:21:41;;;;;;;2.72;2.60;;;;;;;;;;4993508;28;20256;-65
2020/12/09 13:24:07;;;;;;;4.22;3.85;;;;;;;;;;4992123;28;20202;-65
2020/12/09 13:26:33;;;;;;;4.05;3.33;;;;;;;;;;4992957;28;20178;-66
2020/12/09 13:28:59;;;;;;;2.90;2.80;;;;;;;;;;4992730;28;20225;-66
2020/12/09 13:31:25;;;;;;;3.05;2.85;;;;;;;;;;4992961;28;20210;-66
2020/12/09 13:33:52;;;;;;;7.55;4.85;;;;;;;;;;4993309;28;20222;-64
2020/12/09 13:36:22;;;;;;;4.17;3.83;;;;;;;;;;4993180;28;20174;-64
2020/12/09 13:38:48;;;;;;;6.38;5.47;;;;;;;;;;4992486;28;20778;-65
2020/12/09 13:41:14;;;;;;;2.20;2.10;;;;;;;;;;4992810;28;20170;-64
2020/12/09 13:43:40;;;;;;;3.03;2.78;;;;;;;;;;4992671;28;20682;-65
2020/12/09 13:46:06;;;;;;;2.83;2.70;;;;;;;;;;4992968;28;20186;-64
2020/12/09 13:48:32;;;;;;;5.47;3.07;;;;;;;;;;4992662;28;21067;-65
2020/12/09 13:50:58;;;;;;;4.85;4.45;;;;;;;;;;4992295;28;20556;-64
2020/12/09 13:53:25;;;;;;;3.63;3.40;;;;;;;;;;4992781;28;20278;-64
2020/12/09 13:55:51;;;;;;;14.80;3.33;;;;;;;;;;4992575;28;20995;-64
2020/12/09 13:58:17;;;;;;;3.20;2.45;;;;;;;;;;4993432;28;20646;-64
2020/12/09 14:00:43;;;;;;;2.28;2.22;;;;;;;;;;4992423;28;20182;-64
2020/12/09 14:03:09;;;;;;;5.78;2.80;;;;;;;;;;4992878;28;20276;-65
2020/12/09 14:05:35;;;;;;;3.00;2.90;;;;;;;;;;4992779;28;20179;-65
2020/12/09 14:08:01;;;;;;;2.40;2.30;;;;;;;;;;4992605;28;20167;-65
2020/12/09 14:10:27;;;;;;;2.05;1.95;;;;;;;;;;4992225;28;20453;-65
2020/12/09 14:12:53;;;;;;;3.92;3.63;;;;;;;;;;4992081;28;20194;-65
2020/12/09 14:15:19;;;;;;;1.77;1.70;;;;;;;;;;4992458;28;20174;-65
2020/12/09 14:17:46;;;;;;;5.17;4.77;;;;;;;;;;4992395;28;20810;-65
2020/12/09 14:20:12;;;;;;;2.90;2.80;;;;;;;;;;4991886;28;20414;-65
2020/12/09 14:22:38;;;;;;;2.20;2.10;;;;;;;;;;4991993;28;20240;-64
2020/12/09 14:25:05;;;;;;;3.72;3.53;;;;;;;;;;4992435;28;20178;-65
2020/12/09 14:27:31;;;;;;;6.68;4.65;;;;;;;;;;4992316;28;20181;-65
2020/12/09 14:29:57;;;;;;;2.85;2.08;;;;;;;;;;4991874;28;20587;-65
2020/12/09 14:32:23;;;;;;;2.65;2.55;;;;;;;;;;4991879;28;20221;-65
2020/12/09 14:34:49;;;;;;;3.25;3.05;;;;;;;;;;4991723;28;20170;-65
2020/12/09 14:37:15;;;;;;;2.63;2.53;;;;;;;;;;4992157;28;20175;-65
2020/12/09 14:39:41;;;;;;;3.37;3.20;;;;;;;;;;4991860;28;20402;-65
2020/12/09 14:42:07;;;;;;;5.77;5.47;;;;;;;;;;4992053;28;20417;-65
2020/12/09 14:44:33;;;;;;;2.15;2.03;;;;;;;;;;4991341;28;20402;-65